Time;durP1;ratioP1;P1;durP2;ratioP2;P2;SDS_P1;SDS_P2;PMS_P1;PMS_P2;Temp;Humidity;BMP_temperature;BMP_pressure;BME280_temperature;BME280_humidity;BME280_pressure;Samples;Min_cycle;Max_cycle;Signal;HPM_P1;HPM_P2
2023/06/12 00:00:43;;;;;;;7.72;3.67;;;;;;;25.61;26.01;101621.44;5017153;27;99080;-67
2023/06/12 00:03:09;;;;;;;10.05;4.45;;;;;;;25.65;25.79;101617.50;5017393;27;98767;-67
2023/06/12 00:05:40;;;;;;;9.85;3.63;;;;;;;25.56;26.19;101615.53;5023165;27;97996;-68
2023/06/12 00:08:08;;;;;;;6.35;3.40;;;;;;;25.54;26.23;101620.22;5016540;27;98703;-67
2023/06/12 00:10:35;;;;;;;10.55;3.55;;;;;;;25.49;26.23;101622.47;5025935;27;98891;-67
2023/06/12 00:13:01;;;;;;;9.55;3.75;;;;;;;25.39;26.49;101622.38;5031185;27;99354;-68
2023/06/12 00:15:29;;;;;;;10.20;3.90;;;;;;;25.58;26.23;101621.72;5018123;27;98642;-68
2023/06/12 00:17:55;;;;;;;5.68;3.97;;;;;;;25.41;26.48;101620.41;5017367;27;96935;-68
2023/06/12 00:20:22;;;;;;;5.65;3.58;;;;;;;25.43;26.34;101625.69;5021607;27;102064;-67
2023/06/12 00:22:48;;;;;;;8.30;3.50;;;;;;;25.46;26.29;101622.75;5025648;27;100005;-67
2023/06/12 00:25:14;;;;;;;8.60;3.50;;;;;;;25.48;26.18;101620.75;5029995;27;100181;-68
2023/06/12 00:27:43;;;;;;;7.72;3.47;;;;;;;25.20;26.34;101616.81;5023882;27;98734;-67
2023/06/12 00:30:11;;;;;;;9.25;3.55;;;;;;;25.28;26.50;101625.13;5018802;27;99008;-68
2023/06/12 00:32:39;;;;;;;6.85;4.10;;;;;;;25.30;26.49;101616.88;5023980;27;99034;-68
2023/06/12 00:35:06;;;;;;;6.85;3.67;;;;;;;25.31;26.16;101615.91;5025631;27;99608;-68
2023/06/12 00:37:33;;;;;;;6.70;3.47;;;;;;;25.01;26.57;101622.84;5016395;27;98581;-70
2023/06/12 00:40:00;;;;;;;7.50;3.50;;;;;;;25.19;26.26;101619.63;5014925;27;99406;-68
2023/06/12 00:42:31;;;;;;;5.45;3.70;;;;;;;25.21;25.91;101628.44;5019671;27;98802;-67
2023/06/12 00:44:57;;;;;;;10.95;3.58;;;;;;;25.08;26.07;101623.19;5027855;27;98223;-67
2023/06/12 00:47:25;;;;;;;4.45;3.03;;;;;;;25.13;26.12;101621.00;5024979;27;97727;-68
2023/06/12 00:49:53;;;;;;;4.25;3.28;;;;;;;25.12;25.87;101619.28;5022122;27;99072;-68
2023/06/12 00:52:24;;;;;;;8.45;3.67;;;;;;;24.94;26.16;101626.22;5030915;27;97698;-69
2023/06/12 00:54:55;;;;;;;11.27;3.60;;;;;;;24.84;25.93;101630.59;5019477;27;98994;-69
2023/06/12 00:57:23;;;;;;;6.28;3.50;;;;;;;25.13;25.73;101633.66;5031358;27;96839;-66
2023/06/12 00:59:49;;;;;;;7.40;3.65;;;;;;;25.03;25.57;101622.72;5027018;27;99006;-68
2023/06/12 01:02:16;;;;;;;5.43;3.45;;;;;;;25.21;25.73;101629.31;5017777;27;98818;-67
2023/06/12 01:04:42;;;;;;;5.45;3.70;;;;;;;25.02;26.12;101624.56;5019982;27;98699;-68
2023/06/12 01:07:15;;;;;;;4.43;3.20;;;;;;;24.96;25.52;101625.06;5018807;27;98422;-69
2023/06/12 01:09:49;;;;;;;7.97;3.35;;;;;;;24.84;25.27;101626.06;5018710;27;98937;-68
2023/06/12 01:12:16;;;;;;;7.50;3.65;;;;;;;24.72;25.43;101623.50;5020081;27;98315;-68
2023/06/12 01:14:45;;;;;;;7.93;3.47;;;;;;;24.69;25.43;101631.84;5019522;27;97766;-68
2023/06/12 01:17:12;;;;;;;10.95;3.33;;;;;;;24.67;25.31;101626.56;5023517;27;97847;-67
2023/06/12 01:19:39;;;;;;;5.13;3.13;;;;;;;24.52;25.93;101630.50;5026642;27;98585;-69
2023/06/12 01:22:10;;;;;;;6.60;3.50;;;;;;;24.39;25.73;101632.47;5025514;27;99255;-68
2023/06/12 01:25:24;;;;;;;7.03;3.22;;;;;;;24.41;25.31;101634.06;5027456;27;98685;-68
2023/06/12 01:28:11;;;;;;;8.75;3.42;;;;;;;24.35;25.21;101617.50;4999128;27;97070;-68
2023/06/12 01:30:49;;;;;;;5.32;3.20;;;;;;;24.36;25.20;101627.28;5031895;27;99496;-70
2023/06/12 01:33:21;;;;;;;8.57;3.13;;;;;;;24.38;25.31;101623.50;5030433;27;98761;-68
2023/06/12 01:35:51;;;;;;;6.38;3.03;;;;;;;24.54;25.00;101624.00;5022910;27;97372;-68
2023/06/12 01:38:20;;;;;;;3.08;2.72;;;;;;;24.59;24.97;101626.31;5023257;27;96888;-68
2023/06/12 01:40:48;;;;;;;5.85;3.30;;;;;;;24.72;24.54;101627.06;5020626;27;99012;-68
2023/06/12 01:43:17;;;;;;;4.85;3.05;;;;;;;24.62;24.76;101621.53;5019434;27;98959;-67
2023/06/12 01:45:45;;;;;;;4.65;3.08;;;;;;;24.66;24.87;101627.56;5019284;27;98971;-68
2023/06/12 01:48:13;;;;;;;6.05;3.25;;;;;;;24.42;25.04;101619.56;5019125;27;98615;-68
2023/06/12 01:50:41;;;;;;;3.33;2.92;;;;;;;24.49;24.63;101626.19;5022555;27;101654;-69
2023/06/12 01:53:10;;;;;;;6.63;3.20;;;;;;;24.40;24.62;101624.25;5020031;27;98780;-68
2023/06/12 01:55:37;;;;;;;7.03;3.15;;;;;;;24.42;24.90;101622.25;5019105;27;98925;-68
2023/06/12 01:58:04;;;;;;;9.18;2.95;;;;;;;24.28;25.09;101627.91;5019746;27;97201;-68
2023/06/12 02:00:32;;;;;;;5.78;2.85;;;;;;;24.20;24.64;101625.81;5027313;27;99867;-63
2023/06/12 02:03:01;;;;;;;7.22;2.60;;;;;;;24.31;24.41;101632.19;5033535;27;98326;-63
2023/06/12 02:05:28;;;;;;;5.63;3.10;;;;;;;24.34;24.09;101630.13;5017908;27;100421;-63
2023/06/12 02:07:55;;;;;;;5.97;2.90;;;;;;;24.32;24.30;101626.69;5018951;27;98382;-63
2023/06/12 02:10:22;;;;;;;7.57;2.92;;;;;;;24.31;24.21;101632.19;5018751;27;100882;-62
2023/06/12 02:12:48;;;;;;;4.97;2.80;;;;;;;24.32;24.07;101629.38;5029636;27;101409;-68
2023/06/12 02:15:15;;;;;;;7.40;2.63;;;;;;;24.51;24.18;101620.66;5020148;27;97200;-68
2023/06/12 02:17:42;;;;;;;5.93;2.75;;;;;;;24.55;24.02;101625.69;5020917;27;97066;-68
2023/06/12 02:20:09;;;;;;;9.80;3.22;;;;;;;24.33;24.28;101622.16;5019200;27;98001;-68
2023/06/12 02:22:35;;;;;;;4.05;2.53;;;;;;;24.20;24.46;101625.81;5017504;27;97602;-62
2023/06/12 02:25:04;;;;;;;10.38;3.15;;;;;;;24.33;24.20;101624.84;5025477;27;96849;-61
2023/06/12 02:27:30;;;;;;;6.63;2.97;;;;;;;24.30;24.11;101625.06;5028744;27;96821;-61
2023/06/12 02:29:57;;;;;;;8.98;2.72;;;;;;;24.18;24.52;101630.44;5021773;27;99065;-61
2023/06/12 02:32:23;;;;;;;4.47;2.72;;;;;;;24.00;24.67;101636.44;5018304;27;99731;-61
2023/06/12 02:34:49;;;;;;;5.13;3.13;;;;;;;24.14;24.27;101631.69;5018685;27;99752;-61
2023/06/12 02:37:16;;;;;;;6.18;2.97;;;;;;;24.18;24.05;101637.69;5017280;27;97537;-61
2023/06/12 02:39:43;;;;;;;6.82;2.88;;;;;;;24.39;24.16;101633.31;5019133;27;97917;-63
2023/06/12 02:42:11;;;;;;;7.00;3.28;;;;;;;24.40;24.16;101634.19;5023520;27;98991;-62
2023/06/12 02:44:37;;;;;;;8.80;2.67;;;;;;;24.22;24.02;101644.59;5035319;27;96845;-63
2023/06/12 02:47:04;;;;;;;5.28;2.65;;;;;;;24.31;24.00;101645.69;5040422;27;97000;-62
2023/06/12 02:49:31;;;;;;;4.82;3.13;;;;;;;24.22;24.49;101640.03;5026077;27;101209;-63
2023/06/12 02:51:58;;;;;;;8.70;3.15;;;;;;;24.27;24.47;101638.84;5019679;27;99814;-62
2023/06/12 02:54:27;;;;;;;3.63;2.63;;;;;;;24.15;24.48;101643.34;5018316;27;97191;-62
2023/06/12 02:56:53;;;;;;;3.88;2.70;;;;;;;24.19;24.69;101645.69;5028553;27;96824;-62
2023/06/12 02:59:23;;;;;;;11.07;3.88;;;;;;;24.21;24.89;101642.88;5033570;27;98587;-63
2023/06/12 03:01:50;;;;;;;5.53;3.05;;;;;;;24.14;24.81;101647.88;5022622;27;99435;-61
2023/06/12 03:04:19;;;;;;;8.93;2.55;;;;;;;24.19;24.71;101642.13;5024481;27;96833;-62
2023/06/12 03:06:47;;;;;;;7.15;2.60;;;;;;;24.28;24.71;101649.53;5034687;27;97342;-62
2023/06/12 03:09:15;;;;;;;13.07;3.40;;;;;;;24.17;24.74;101655.72;5025429;27;97976;-61
2023/06/12 03:11:42;;;;;;;4.47;3.42;;;;;;;24.25;24.95;101648.91;5030545;27;98766;-60
2023/06/12 03:14:08;;;;;;;6.75;3.47;;;;;;;24.14;25.32;101658.69;5031190;27;97756;-61
2023/06/12 03:16:36;;;;;;;6.38;3.47;;;;;;;24.19;25.21;101655.63;5034947;27;96948;-60
2023/06/12 03:19:03;;;;;;;7.72;3.80;;;;;;;24.08;25.55;101659.16;5032021;27;101543;-61
2023/06/12 03:21:29;;;;;;;5.68;2.63;;;;;;;24.12;25.33;101662.47;5031423;27;98775;-62
2023/06/12 03:23:56;;;;;;;5.13;3.05;;;;;;;24.06;25.67;101657.53;5025984;27;98587;-61
2023/06/12 03:26:22;;;;;;;6.63;3.45;;;;;;;24.04;25.61;101660.34;5018557;27;97657;-61
2023/06/12 03:28:49;;;;;;;10.63;4.03;;;;;;;23.97;25.83;101661.81;5022361;27;99283;-62
2023/06/12 03:31:15;;;;;;;5.05;3.60;;;;;;;23.97;26.25;101666.34;5020687;27;99149;-61
2023/06/12 03:33:43;;;;;;;5.35;3.22;;;;;;;24.12;25.64;101657.94;5017460;27;97645;-61
2023/06/12 03:36:11;;;;;;;5.40;3.17;;;;;;;24.01;25.87;101652.50;5018880;27;97621;-61
2023/06/12 03:38:37;;;;;;;8.32;3.58;;;;;;;24.09;25.91;101655.44;5019188;27;100793;-61
2023/06/12 03:41:03;;;;;;;6.80;3.40;;;;;;;24.02;26.17;101656.06;5019075;27;99075;-61
2023/06/12 03:43:30;;;;;;;7.53;3.67;;;;;;;24.06;26.04;101658.41;5019704;27;98746;-60
2023/06/12 03:45:56;;;;;;;5.85;3.13;;;;;;;24.08;25.97;101658.28;5018880;27;98871;-62
2023/06/12 03:48:22;;;;;;;9.10;3.25;;;;;;;24.03;25.94;101658.63;5017170;27;99182;-61
2023/06/12 03:50:50;;;;;;;9.25;3.92;;;;;;;24.06;26.03;101661.09;5023277;27;99811;-61
2023/06/12 03:53:17;;;;;;;5.10;3.50;;;;;;;24.21;26.15;101659.09;5018474;27;97750;-61
2023/06/12 03:55:45;;;;;;;14.77;3.20;;;;;;;24.06;26.28;101669.19;5016749;27;98768;-60
2023/06/12 03:58:16;;;;;;;7.45;3.45;;;;;;;24.29;25.86;101664.72;5016881;27;98940;-61
2023/06/12 04:00:43;;;;;;;6.22;3.35;;;;;;;24.13;26.07;101670.44;5019930;27;100072;-60
2023/06/12 04:03:09;;;;;;;6.75;3.38;;;;;;;24.20;26.11;101671.72;5022399;27;98492;-61
2023/06/12 04:05:36;;;;;;;6.43;3.30;;;;;;;24.39;25.73;101665.75;5021404;27;97756;-62
2023/06/12 04:08:04;;;;;;;6.15;3.40;;;;;;;24.32;25.64;101671.75;5026747;27;99050;-67
2023/06/12 04:10:33;;;;;;;7.68;3.50;;;;;;;24.40;25.33;101672.88;5030641;27;99530;-67
2023/06/12 04:12:59;;;;;;;6.03;2.92;;;;;;;24.48;25.12;101672.25;5040767;27;96747;-67
2023/06/12 04:15:26;;;;;;;6.65;2.65;;;;;;;24.61;25.72;101671.13;5039083;27;96811;-67
2023/06/12 04:17:53;;;;;;;8.35;4.50;;;;;;;24.57;25.20;101669.69;5031522;27;101182;-67
2023/06/12 04:20:19;;;;;;;8.88;3.30;;;;;;;24.76;25.44;101671.75;5035201;27;99061;-68
2023/06/12 04:22:47;;;;;;;5.40;3.28;;;;;;;24.70;25.43;101674.97;5035183;27;96771;-67
2023/06/12 04:25:15;;;;;;;10.48;3.08;;;;;;;24.83;24.85;101675.69;5041097;27;97814;-68
2023/06/12 04:27:42;;;;;;;8.18;4.47;;;;;;;24.97;24.75;101670.06;5031902;27;99095;-67
2023/06/12 04:30:10;;;;;;;11.85;3.30;;;;;;;25.05;24.86;101669.44;5041527;27;98994;-66
2023/06/12 04:32:37;;;;;;;5.82;3.72;;;;;;;25.00;24.89;101675.22;5033957;27;98016;-67
2023/06/12 04:35:05;;;;;;;8.27;3.10;;;;;;;25.07;24.80;101672.03;5034833;27;96956;-68
2023/06/12 04:37:31;;;;;;;5.57;2.95;;;;;;;25.29;24.38;101674.66;5035953;27;98955;-67
2023/06/12 04:39:58;;;;;;;4.65;3.00;;;;;;;25.30;24.25;101681.81;5033015;27;101723;-62
2023/06/12 04:42:26;;;;;;;6.82;3.10;;;;;;;25.25;24.35;101674.06;5030658;27;96879;-61
2023/06/12 04:44:53;;;;;;;11.25;3.33;;;;;;;25.26;24.31;101677.63;5039372;27;97186;-63
2023/06/12 04:47:20;;;;;;;10.68;3.30;;;;;;;25.36;24.06;101675.88;5041905;27;99382;-62
2023/06/12 04:49:46;;;;;;;6.10;3.10;;;;;;;25.38;23.84;101673.91;5037936;27;98986;-62
2023/06/12 04:52:13;;;;;;;8.48;3.13;;;;;;;25.55;23.91;101684.19;5046864;27;96968;-62
2023/06/12 04:54:41;;;;;;;8.93;3.80;;;;;;;25.08;24.58;101688.09;5036105;27;96855;-63
2023/06/12 04:57:12;;;;;;;8.65;3.53;;;;;;;25.65;24.10;101693.28;5040882;27;99167;-62
2023/06/12 04:59:40;;;;;;;9.68;3.55;;;;;;;25.71;23.89;101689.22;5038615;27;98763;-61
2023/06/12 05:02:08;;;;;;;8.13;3.35;;;;;;;25.80;23.62;101689.28;5040130;27;97304;-61
2023/06/12 05:04:36;;;;;;;11.70;3.05;;;;;;;25.73;23.83;101682.66;5037940;27;97200;-62
2023/06/12 05:07:04;;;;;;;8.88;3.25;;;;;;;25.79;23.59;101684.88;5035833;27;98987;-63
2023/06/12 05:09:38;;;;;;;10.05;3.50;;;;;;;25.86;23.60;101690.63;5029730;27;99289;-63
2023/06/12 05:12:06;;;;;;;11.15;3.00;;;;;;;26.10;23.36;101687.66;5034266;27;96843;-62
2023/06/12 05:14:34;;;;;;;12.38;3.88;;;;;;;26.24;22.98;101684.66;5023223;27;97403;-62
2023/06/12 05:17:02;;;;;;;11.23;3.65;;;;;;;26.32;23.03;101684.00;5034959;27;99004;-63
2023/06/12 05:19:29;;;;;;;13.32;4.28;;;;;;;26.39;22.81;101675.19;5037024;27;99044;-63
2023/06/12 05:21:56;;;;;;;4.60;3.00;;;;;;;26.30;22.36;101684.13;5026398;27;99045;-62
2023/06/12 05:24:22;;;;;;;16.67;4.40;;;;;;;26.39;22.69;101677.88;5040567;27;97387;-63
2023/06/12 05:26:50;;;;;;;18.88;4.07;;;;;;;26.52;22.71;101683.94;5031361;27;98856;-62
2023/06/12 05:29:17;;;;;;;18.20;3.97;;;;;;;26.44;22.76;101683.78;5039170;27;97762;-63
2023/06/12 05:31:43;;;;;;;10.07;3.47;;;;;;;26.37;23.06;101682.59;5039214;27;98399;-63
2023/06/12 05:34:11;;;;;;;17.17;3.88;;;;;;;26.62;22.99;101684.00;5033183;27;97393;-61
2023/06/12 05:36:38;;;;;;;15.77;3.42;;;;;;;26.65;22.79;101681.00;5032248;27;101773;-62
2023/06/12 05:39:05;;;;;;;15.98;3.92;;;;;;;26.81;22.70;101680.53;5038629;27;99787;-62
2023/06/12 05:41:31;;;;;;;11.35;3.15;;;;;;;26.94;22.18;101673.03;5032550;27;96868;-62
2023/06/12 05:43:58;;;;;;;26.83;3.88;;;;;;;26.85;22.40;101682.81;5035123;27;97033;-62
2023/06/12 05:46:25;;;;;;;14.65;4.20;;;;;;;26.95;22.54;101682.88;5031968;27;98873;-62
2023/06/12 05:48:51;;;;;;;15.73;3.80;;;;;;;27.25;22.15;101693.69;5032655;27;100871;-62
2023/06/12 05:51:19;;;;;;;9.52;3.75;;;;;;;27.20;21.99;101690.53;5023505;27;97768;-63
2023/06/12 05:53:47;;;;;;;14.23;3.78;;;;;;;27.17;22.12;101698.09;5034761;27;97068;-62
2023/06/12 05:56:14;;;;;;;10.65;3.40;;;;;;;27.42;22.13;101696.72;5030964;27;98834;-62
2023/06/12 05:58:42;;;;;;;16.52;3.95;;;;;;;27.48;22.09;101694.31;5035501;27;99332;-63
2023/06/12 06:01:11;;;;;;;13.88;3.53;;;;;;;27.60;22.16;101693.19;5032646;27;97183;-62
2023/06/12 06:03:42;;;;;;;10.70;3.30;;;;;;;27.49;21.89;101697.88;5029765;27;96977;-63
2023/06/12 06:06:08;;;;;;;8.40;3.20;;;;;;;27.62;21.90;101699.34;5036255;27;97900;-63
2023/06/12 06:08:36;;;;;;;14.77;3.33;;;;;;;27.62;22.06;101693.94;5037830;27;98813;-68
2023/06/12 06:11:03;;;;;;;11.43;3.40;;;;;;;27.84;21.95;101700.91;5033564;27;98704;-67
2023/06/12 06:13:32;;;;;;;19.13;3.30;;;;;;;27.94;21.60;101699.06;5039070;27;96914;-69
2023/06/12 06:15:58;;;;;;;12.10;2.78;;;;;;;27.67;21.86;101693.50;5032699;27;99273;-68
2023/06/12 06:18:25;;;;;;;9.13;3.40;;;;;;;27.79;21.79;101697.78;5033073;27;98902;-68
2023/06/12 06:20:52;;;;;;;10.40;3.53;;;;;;;27.74;22.18;101695.50;5033353;27;97336;-68
2023/06/12 06:23:19;;;;;;;10.05;3.30;;;;;;;27.98;21.75;101696.91;5034417;27;97168;-68
2023/06/12 06:25:47;;;;;;;10.18;3.83;;;;;;;27.53;22.25;101696.63;5032840;27;97804;-63
2023/06/12 06:28:14;;;;;;;8.65;2.95;;;;;;;27.97;21.89;101712.34;5040531;27;98882;-63
2023/06/12 06:30:40;;;;;;;7.57;3.10;;;;;;;28.06;21.78;101703.34;5034577;27;96768;-62
2023/06/12 06:33:12;;;;;;;11.07;3.20;;;;;;;28.22;21.70;101702.78;5036662;27;96857;-62
2023/06/12 06:35:39;;;;;;;6.20;3.20;;;;;;;28.34;21.60;101704.34;5042552;27;97865;-62
2023/06/12 06:38:05;;;;;;;11.02;3.92;;;;;;;28.62;21.61;101704.41;5041752;27;98926;-62
2023/06/12 06:40:32;;;;;;;11.93;3.25;;;;;;;28.80;21.48;101708.97;5039486;27;96746;-64
2023/06/12 06:42:59;;;;;;;8.05;2.70;;;;;;;28.81;21.18;101713.41;5033648;27;97560;-62
2023/06/12 06:45:26;;;;;;;9.40;3.05;;;;;;;28.88;21.43;101714.47;5032956;27;98890;-62
2023/06/12 06:47:52;;;;;;;7.95;3.08;;;;;;;29.10;21.04;101706.94;5032703;27;98821;-63
2023/06/12 06:50:19;;;;;;;12.50;3.55;;;;;;;29.45;20.85;101711.63;5033839;27;96739;-62
2023/06/12 06:52:45;;;;;;;18.25;3.70;;;;;;;29.74;20.42;101717.72;5032214;27;96868;-62
2023/06/12 06:55:12;;;;;;;9.13;3.10;;;;;;;29.55;20.64;101718.72;5031511;27;97648;-62
2023/06/12 06:57:38;;;;;;;7.70;3.20;;;;;;;29.33;20.85;101713.69;5032621;27;97737;-63
2023/06/12 07:00:08;;;;;;;14.73;3.40;;;;;;;29.52;20.93;101704.56;5041822;27;97160;-63
2023/06/12 07:02:35;;;;;;;16.50;3.63;;;;;;;29.49;20.73;101708.44;5032992;27;96940;-64
2023/06/12 07:05:01;;;;;;;13.98;3.58;;;;;;;29.45;21.04;101711.63;5041851;27;99086;-63
2023/06/12 07:07:27;;;;;;;9.32;3.15;;;;;;;29.61;20.60;101717.25;5038424;27;98913;-64
2023/06/12 07:09:54;;;;;;;15.00;3.28;;;;;;;29.52;20.89;101718.19;5035866;27;96812;-63
2023/06/12 07:12:20;;;;;;;14.05;4.53;;;;;;;29.31;21.32;101710.25;5038773;27;97158;-63
2023/06/12 07:14:47;;;;;;;11.35;3.50;;;;;;;29.50;21.16;101717.47;5031291;27;98942;-63
2023/06/12 07:17:15;;;;;;;15.27;3.83;;;;;;;29.59;21.39;101717.41;5038994;27;97754;-62
2023/06/12 07:19:42;;;;;;;6.90;3.03;;;;;;;29.46;20.99;101718.81;5030574;27;96725;-63
2023/06/12 07:22:09;;;;;;;6.10;4.00;;;;;;;29.63;20.67;101717.94;5031945;27;96798;-64
2023/06/12 07:24:35;;;;;;;11.63;3.65;;;;;;;29.59;20.62;101722.88;5032617;27;99282;-63
2023/06/12 07:27:01;;;;;;;4.43;2.67;;;;;;;29.75;20.29;101724.03;5033276;27;98630;-62
2023/06/12 07:29:28;;;;;;;8.18;3.17;;;;;;;29.87;20.23;101728.22;5035302;27;96888;-62
2023/06/12 07:31:54;;;;;;;11.13;4.18;;;;;;;29.86;20.40;101721.94;5041042;27;97696;-62
2023/06/12 07:34:22;;;;;;;12.05;3.17;;;;;;;30.26;20.31;101726.88;5032793;27;98990;-62
2023/06/12 07:36:49;;;;;;;10.27;3.10;;;;;;;30.54;19.02;101721.31;5044586;27;99341;-61
2023/06/12 07:39:15;;;;;;;10.15;3.58;;;;;;;30.52;19.04;101728.84;5036808;27;96826;-63
2023/06/12 07:41:42;;;;;;;9.70;3.10;;;;;;;30.48;19.37;101726.38;5037856;27;99513;-62
2023/06/12 07:44:10;;;;;;;6.57;3.15;;;;;;;30.54;19.29;101724.06;5031156;27;99099;-62
2023/06/12 07:47:11;;;;;;;9.75;3.38;;;;;;;30.57;19.35;101721.03;5036614;27;101356;-63
2023/06/12 07:49:39;;;;;;;5.03;3.20;;;;;;;30.25;19.14;101727.94;5037272;27;96855;-63
2023/06/12 07:52:06;;;;;;;9.75;2.60;;;;;;;30.44;19.04;101725.00;5036066;27;96767;-63
2023/06/12 07:54:32;;;;;;;9.30;3.10;;;;;;;30.27;19.16;101712.25;5036401;27;99199;-63
2023/06/12 07:56:59;;;;;;;12.35;3.40;;;;;;;30.36;19.50;101719.47;5033425;27;98811;-67
2023/06/12 07:59:25;;;;;;;6.32;3.17;;;;;;;29.89;19.57;101721.63;5037468;27;96702;-64
2023/06/12 08:01:52;;;;;;;8.73;3.33;;;;;;;29.80;19.75;101721.72;5026810;27;99060;-63
2023/06/12 08:04:18;;;;;;;5.50;2.85;;;;;;;29.87;19.70;101712.72;5031011;27;98951;-63
2023/06/12 08:06:47;;;;;;;5.18;3.17;;;;;;;29.79;19.00;101718.13;5025337;27;98777;-64
2023/06/12 08:09:14;;;;;;;9.05;3.40;;;;;;;29.25;19.55;101711.72;5031829;27;97319;-64
2023/06/12 08:11:41;;;;;;;17.35;2.95;;;;;;;29.30;19.51;101714.00;5033001;27;96829;-64
2023/06/12 08:14:13;;;;;;;17.23;4.13;;;;;;;29.36;19.93;101707.97;5023951;27;98248;-63
2023/06/12 08:16:40;;;;;;;11.45;2.75;;;;;;;29.78;19.11;101712.81;5031825;27;99300;-65
2023/06/12 08:19:07;;;;;;;7.60;2.70;;;;;;;29.92;18.46;101699.56;5032141;27;97162;-62
2023/06/12 08:21:33;;;;;;;3.10;2.55;;;;;;;30.09;18.52;101700.53;5031530;27;96846;-62
2023/06/12 08:24:01;;;;;;;10.70;3.05;;;;;;;30.34;18.21;101696.97;5028215;27;98982;-64
2023/06/12 08:26:28;;;;;;;5.47;2.95;;;;;;;30.68;18.38;101699.78;5034901;27;98925;-63
2023/06/12 08:28:54;;;;;;;6.00;2.88;;;;;;;30.33;17.81;101694.41;5028964;27;97179;-64
2023/06/12 08:31:21;;;;;;;6.32;2.70;;;;;;;29.97;17.93;101696.34;5028254;27;97551;-63
2023/06/12 08:33:47;;;;;;;3.17;2.47;;;;;;;30.26;18.36;101691.44;5033107;27;99301;-64
2023/06/12 08:36:13;;;;;;;7.40;2.53;;;;;;;30.83;17.78;101692.69;5031696;27;99846;-63
2023/06/12 08:38:40;;;;;;;16.35;3.22;;;;;;;30.65;17.35;101696.53;5038255;27;96754;-63
2023/06/12 08:41:08;;;;;;;10.02;2.90;;;;;;;30.45;17.71;101691.28;5029543;27;97032;-63
2023/06/12 08:43:35;;;;;;;3.92;2.90;;;;;;;30.54;17.57;101685.88;5030516;27;98837;-63
2023/06/12 08:46:03;;;;;;;3.00;2.67;;;;;;;30.62;17.78;101689.50;5028528;27;99145;-63
2023/06/12 08:48:32;;;;;;;4.75;2.70;;;;;;;30.70;17.47;101688.69;5031837;27;97618;-62
2023/06/12 08:51:00;;;;;;;6.97;2.58;;;;;;;30.47;17.54;101683.75;5032268;27;96843;-62
2023/06/12 08:53:27;;;;;;;10.48;3.20;;;;;;;30.71;17.67;101687.69;5029960;27;99288;-63
2023/06/12 08:55:55;;;;;;;8.95;2.80;;;;;;;30.81;17.34;101689.28;5027701;27;101329;-65
2023/06/12 08:58:23;;;;;;;7.13;2.95;;;;;;;30.62;17.44;101692.25;5028084;27;96884;-64
2023/06/12 09:00:50;;;;;;;6.38;2.70;;;;;;;30.73;17.77;101685.63;5027577;27;97027;-63
2023/06/12 09:03:16;;;;;;;8.27;3.35;;;;;;;30.49;17.85;101686.38;5032573;27;99174;-62
2023/06/12 09:05:45;;;;;;;10.98;3.25;;;;;;;30.29;18.25;101696.59;5027777;27;99103;-62
2023/06/12 09:08:11;;;;;;;3.67;2.72;;;;;;;30.36;18.28;101692.22;5026425;27;97127;-63
2023/06/12 09:10:39;;;;;;;4.68;3.22;;;;;;;30.84;18.16;101688.97;5034026;27;97871;-63
2023/06/12 09:13:08;;;;;;;15.35;3.55;;;;;;;30.64;18.12;101690.22;5026902;27;98904;-62
2023/06/12 09:15:35;;;;;;;11.05;3.45;;;;;;;30.52;18.27;101690.66;5030107;27;99980;-63
2023/06/12 09:18:02;;;;;;;8.88;3.13;;;;;;;30.49;18.12;101687.22;5029815;27;97294;-62
2023/06/12 09:20:30;;;;;;;8.35;3.00;;;;;;;30.46;18.34;101684.78;5031498;27;96781;-63
2023/06/12 09:22:58;;;;;;;15.13;3.97;;;;;;;30.55;18.25;101680.25;5025431;27;99359;-62
2023/06/12 09:25:28;;;;;;;11.90;3.75;;;;;;;30.66;18.37;101692.75;5027850;27;97688;-63
2023/06/12 09:27:54;;;;;;;11.82;3.38;;;;;;;30.72;18.14;101686.69;5025790;27;98126;-63
2023/06/12 09:30:21;;;;;;;11.52;3.50;;;;;;;30.47;18.60;101682.91;5031675;27;96989;-63
2023/06/12 09:32:49;;;;;;;8.15;3.53;;;;;;;30.10;19.10;101686.75;5026645;27;98929;-62
2023/06/12 09:35:17;;;;;;;12.13;3.50;;;;;;;29.90;19.44;101689.78;5028430;27;99112;-63
2023/06/12 09:37:43;;;;;;;7.28;3.42;;;;;;;30.30;19.24;101687.41;5025339;27;97394;-63
2023/06/12 09:40:11;;;;;;;10.00;3.45;;;;;;;30.23;19.46;101680.88;5026015;27;97250;-63
2023/06/12 09:42:38;;;;;;;12.35;3.40;;;;;;;30.05;19.48;101693.69;5028833;27;99160;-64
2023/06/12 09:45:12;;;;;;;6.65;3.30;;;;;;;30.25;18.63;101681.59;5022957;27;99373;-62
2023/06/12 09:47:43;;;;;;;10.05;3.25;;;;;;;30.18;18.75;101680.50;5024160;27;100199;-63
2023/06/12 09:50:12;;;;;;;11.30;3.55;;;;;;;30.34;19.04;101677.88;5035185;27;97121;-62
2023/06/12 09:52:41;;;;;;;7.13;3.55;;;;;;;30.60;18.34;101664.25;5032673;27;99298;-63
2023/06/12 09:55:09;;;;;;;5.20;2.75;;;;;;;30.86;18.30;101661.47;5034577;27;99241;-63
2023/06/12 09:57:37;;;;;;;9.60;3.42;;;;;;;30.85;18.48;101668.00;5038293;27;96742;-62
2023/06/12 10:00:07;;;;;;;5.18;3.10;;;;;;;30.79;17.88;101674.06;5034597;27;97130;-63
2023/06/12 10:02:34;;;;;;;9.63;3.30;;;;;;;30.57;18.22;101661.88;5030334;27;98851;-62
2023/06/12 10:05:04;;;;;;;9.85;3.35;;;;;;;30.58;18.94;101673.66;5032239;27;98752;-62
2023/06/12 10:07:38;;;;;;;4.63;2.90;;;;;;;30.45;18.62;101666.72;5031799;27;96736;-63
2023/06/12 10:10:07;;;;;;;10.93;3.47;;;;;;;30.22;19.18;101665.53;5030284;27;97412;-62
2023/06/12 10:12:34;;;;;;;14.70;4.10;;;;;;;30.32;19.28;101662.72;5030318;27;99126;-62
2023/06/12 10:15:03;;;;;;;4.88;3.50;;;;;;;30.36;19.02;101659.50;5029385;27;99151;-63
2023/06/12 10:17:30;;;;;;;8.80;3.22;;;;;;;30.73;18.96;101650.16;5037868;27;97615;-63
2023/06/12 10:19:57;;;;;;;6.93;2.70;;;;;;;30.80;18.83;101654.81;5039107;27;97251;-63
2023/06/12 10:22:24;;;;;;;9.65;3.22;;;;;;;30.42;19.49;101663.44;5030064;27;98960;-62
2023/06/12 10:24:52;;;;;;;5.57;3.22;;;;;;;30.40;19.98;101649.97;5036465;27;98806;-62
2023/06/12 10:27:19;;;;;;;6.70;2.60;;;;;;;30.55;19.95;101658.44;5033014;27;98414;-63
2023/06/12 10:29:55;;;;;;;7.68;2.88;;;;;;;31.11;20.05;101646.97;5033353;27;96824;-62
2023/06/12 10:32:22;;;;;;;11.13;3.72;;;;;;;30.71;20.92;101649.50;5033359;27;99224;-63
2023/06/12 10:34:50;;;;;;;6.38;3.38;;;;;;;30.97;20.22;101647.56;5032871;27;98724;-64
2023/06/12 10:37:25;;;;;;;13.10;4.63;;;;;;;30.89;20.68;101658.44;5031957;27;98715;-62
2023/06/12 10:40:09;;;;;;;9.35;3.10;;;;;;;30.65;21.17;101651.00;5029704;27;97023;-62
2023/06/12 10:42:43;;;;;;;6.93;3.67;;;;;;;30.86;20.65;101639.66;5039328;27;99205;-63
2023/06/12 10:45:18;;;;;;;3.88;3.22;;;;;;;31.10;20.16;101644.38;5025834;27;98970;-64
2023/06/12 10:48:10;;;;;;;6.85;3.60;;;;;;;31.21;20.46;101644.06;5033848;27;97232;-62
2023/06/12 10:50:38;;;;;;;7.80;3.45;;;;;;;31.28;20.20;101639.66;5029874;27;97917;-63
2023/06/12 10:53:06;;;;;;;5.97;3.40;;;;;;;31.07;20.55;101642.84;5027265;27;99304;-63
2023/06/12 10:55:35;;;;;;;7.10;4.00;;;;;;;31.04;20.19;101639.56;5026362;27;98170;-63
2023/06/12 10:58:03;;;;;;;5.60;3.38;;;;;;;30.90;20.61;101635.59;5025620;27;97505;-63
2023/06/12 11:00:31;;;;;;;8.93;3.42;;;;;;;31.05;20.90;101630.41;5038221;27;96836;-63
2023/06/12 11:03:00;;;;;;;5.93;3.30;;;;;;;31.07;20.74;101636.53;5030315;27;98942;-62
2023/06/12 11:05:27;;;;;;;6.13;3.38;;;;;;;31.18;20.29;101633.47;5036716;27;99307;-62
2023/06/12 11:07:56;;;;;;;9.48;3.28;;;;;;;31.11;20.43;101630.59;5031924;27;96950;-62
2023/06/12 11:10:23;;;;;;;8.82;3.30;;;;;;;31.43;20.51;101618.00;5034734;27;96882;-63
2023/06/12 11:12:52;;;;;;;15.15;3.80;;;;;;;31.51;20.02;101620.72;5033923;27;98283;-63
2023/06/12 11:15:18;;;;;;;6.80;3.60;;;;;;;31.33;20.44;101614.56;5036804;27;99172;-67
2023/06/12 11:17:45;;;;;;;10.20;3.45;;;;;;;31.50;20.16;101613.56;5033872;27;97306;-69
2023/06/12 11:20:13;;;;;;;4.03;3.13;;;;;;;31.47;20.13;101614.75;5038764;27;96819;-68
2023/06/12 11:22:39;;;;;;;7.22;3.53;;;;;;;31.85;19.68;101602.31;5030472;27;98949;-68
2023/06/12 11:25:06;;;;;;;7.97;3.50;;;;;;;31.54;19.59;101602.13;5028000;27;99040;-68